createdAt,value
2023-04-02T00:00:18.368Z,20.02
2023-04-02T00:01:21.405Z,18.73
2023-04-02T00:01:53.670Z,19.23
2023-04-02T00:02:30.730Z,18.58
2023-04-02T00:03:08.781Z,19.10
2023-04-02T00:04:11.016Z,20.48
2023-04-02T00:04:45.804Z,16.00
2023-04-02T00:05:53.042Z,18.30
2023-04-02T00:06:45.027Z,17.67
2023-04-02T00:07:31.078Z,19.23
2023-04-02T00:08:10.289Z,19.88
2023-04-02T00:08:45.142Z,18.33
2023-04-02T00:09:32.771Z,19.33
2023-04-02T00:10:28.039Z,19.83
2023-04-02T00:11:01.500Z,20.00
2023-04-02T00:11:36.178Z,21.33
2023-04-02T00:12:20.858Z,19.67
2023-04-02T00:13:05.850Z,20.90
2023-04-02T00:13:43.875Z,20.13
2023-04-02T00:14:18.903Z,20.90
2023-04-02T00:14:54.610Z,20.35
2023-04-02T00:15:29.755Z,19.38
2023-04-02T00:16:04.450Z,21.20
2023-04-02T00:16:39.431Z,20.23
2023-04-02T00:17:11.661Z,22.77
2023-04-02T00:17:43.879Z,19.48
2023-04-02T00:18:20.375Z,20.95
2023-04-02T00:18:55.801Z,22.88
2023-04-02T00:19:36.007Z,22.88
2023-04-02T00:20:20.261Z,22.67
2023-04-02T00:20:59.687Z,22.48
2023-04-02T00:21:34.854Z,21.95
2023-04-02T00:22:19.501Z,21.00
2023-04-02T00:22:52.088Z,20.77
2023-04-02T00:23:24.834Z,21.10
2023-04-02T00:24:03.670Z,22.33
2023-04-02T00:24:38.727Z,23.25
2023-04-02T00:25:14.294Z,22.25
2023-04-02T00:25:49.286Z,22.80
2023-04-02T00:26:23.749Z,22.63
2023-04-02T00:26:56.294Z,22.38
2023-04-02T00:27:33.582Z,21.55
2023-04-02T00:28:06.015Z,23.05
2023-04-02T00:28:38.227Z,23.33
2023-04-02T00:29:15.564Z,22.33
2023-04-02T00:29:49.110Z,21.85
2023-04-02T00:30:24.623Z,20.98
2023-04-02T00:31:00.200Z,22.38
2023-04-02T00:31:34.208Z,20.67
2023-04-02T00:32:14.970Z,20.85
2023-04-02T00:32:48.126Z,21.15
2023-04-02T00:33:22.958Z,20.70
2023-04-02T00:33:58.064Z,19.08
2023-04-02T00:34:34.038Z,19.60
2023-04-02T00:35:12.695Z,18.92
2023-04-02T00:35:47.605Z,19.98
2023-04-02T00:36:22.213Z,20.10
2023-04-02T00:36:55.162Z,19.05
2023-04-02T00:37:39.354Z,18.13
2023-04-02T00:38:20.924Z,17.17
2023-04-02T00:38:55.508Z,16.88
2023-04-02T00:39:33.266Z,18.55
2023-04-02T00:40:10.149Z,17.10
2023-04-02T00:40:42.937Z,16.30
2023-04-02T00:41:22.930Z,16.83
2023-04-02T00:42:05.210Z,16.30
2023-04-02T00:42:40.503Z,13.75
2023-04-02T00:43:18.975Z,15.82
2023-04-02T00:43:52.840Z,14.95
2023-04-02T00:44:29.506Z,14.07
2023-04-02T00:45:05.126Z,15.52
2023-04-02T00:45:38.943Z,14.48
2023-04-02T00:46:16.301Z,15.50
2023-04-02T00:46:52.834Z,13.60
2023-04-02T00:47:27.861Z,15.55
2023-04-02T00:48:13.755Z,15.77
2023-04-02T00:48:55.572Z,14.38
2023-04-02T00:49:37.024Z,16.38
2023-04-02T00:50:27.626Z,14.20
2023-04-02T00:51:37.468Z,15.10
2023-04-02T00:52:15.958Z,13.93
2023-04-02T00:52:53.810Z,13.55
2023-04-02T00:53:29.323Z,14.65
2023-04-02T00:54:06.970Z,12.95
2023-04-02T00:54:43.727Z,14.18
2023-04-02T00:55:20.072Z,14.15
2023-04-02T00:55:55.235Z,14.02
2023-04-02T00:56:32.484Z,15.07
2023-04-02T00:57:05.483Z,14.35
2023-04-02T00:57:45.304Z,15.18
2023-04-02T00:58:21.564Z,14.70
2023-04-02T00:58:56.431Z,13.55
2023-04-02T00:59:34.535Z,15.00
2023-04-02T01:00:21.575Z,14.30
2023-04-02T01:00:56.915Z,14.52
2023-04-02T01:01:36.766Z,14.65
2023-04-02T01:02:29.245Z,15.35
2023-04-02T01:03:29.165Z,15.88
2023-04-02T01:04:02.473Z,16.80
2023-04-02T01:04:38.471Z,17.17
2023-04-02T01:05:22.778Z,16.48
2023-04-02T01:06:03.019Z,17.75
2023-04-02T01:06:40.840Z,16.20
2023-04-02T01:07:13.450Z,16.67
2023-04-02T01:08:02.580Z,16.83
2023-04-02T01:08:50.200Z,15.68
2023-04-02T01:09:34.697Z,13.93
2023-04-02T01:10:25.288Z,16.30
2023-04-02T01:12:06.544Z,14.85
2023-04-02T01:12:53.970Z,15.63
2023-04-02T01:13:31.425Z,13.88
2023-04-02T01:14:14.002Z,17.10
2023-04-02T01:14:58.010Z,16.73
2023-04-02T01:15:37.580Z,15.90
2023-04-02T01:16:22.358Z,15.15
2023-04-02T01:17:01.445Z,15.43
2023-04-02T01:17:49.180Z,16.20
2023-04-02T01:18:40.645Z,16.20
2023-04-02T01:19:45.256Z,15.90
2023-04-02T01:20:54.964Z,16.05
2023-04-02T01:21:53.070Z,16.52
2023-04-02T01:22:35.364Z,15.38
2023-04-02T01:23:17.203Z,16.77
2023-04-02T01:24:05.427Z,15.77
2023-04-02T01:24:38.658Z,16.05
2023-04-02T01:25:17.980Z,15.40
2023-04-02T01:26:00.107Z,14.07
2023-04-02T01:26:47.018Z,15.60
2023-04-02T01:27:28.942Z,15.38
2023-04-02T01:28:10.009Z,15.23
2023-04-02T01:28:57.971Z,15.55
2023-04-02T01:29:36.116Z,16.08
2023-04-02T01:30:12.160Z,16.60
2023-04-02T01:30:46.222Z,15.15
2023-04-02T01:31:18.997Z,14.93
2023-04-02T01:31:55.820Z,18.50
2023-04-02T01:32:30.599Z,15.40
2023-04-02T01:33:04.293Z,17.15
2023-04-02T01:33:39.184Z,15.60
2023-04-02T01:34:14.531Z,14.95
2023-04-02T01:34:51.732Z,15.50
2023-04-02T01:35:26.204Z,15.07
2023-04-02T01:36:06.063Z,17.25
2023-04-02T01:36:50.333Z,14.68
2023-04-02T01:37:34.997Z,16.98
2023-04-02T01:38:14.577Z,16.42
2023-04-02T01:38:53.358Z,14.05
2023-04-02T01:39:36.966Z,15.55
2023-04-02T01:40:33.886Z,15.25
2023-04-02T01:41:14.039Z,15.35
2023-04-02T01:41:56.472Z,14.57
2023-04-02T01:42:36.391Z,16.48
2023-04-02T01:43:22.545Z,16.52
2023-04-02T01:44:03.267Z,16.95
2023-04-02T01:44:43.345Z,16.55
2023-04-02T01:45:19.732Z,15.70
2023-04-02T01:45:52.762Z,17.15
2023-04-02T01:46:30.072Z,18.13
2023-04-02T01:47:04.170Z,16.70
2023-04-02T01:47:40.864Z,16.15
2023-04-02T01:48:17.118Z,17.55
2023-04-02T01:48:49.746Z,17.50
2023-04-02T01:49:25.565Z,18.50
2023-04-02T01:50:01.295Z,18.30
2023-04-02T01:50:37.497Z,16.45
2023-04-02T01:51:30.044Z,16.50
2023-04-02T01:52:02.432Z,19.20
2023-04-02T01:52:41.308Z,17.83
2023-04-02T01:53:19.499Z,17.77
2023-04-02T01:53:51.990Z,18.20
2023-04-02T01:54:26.081Z,17.90
2023-04-02T01:55:00.934Z,18.20
2023-04-02T01:55:40.312Z,17.90
2023-04-02T01:56:16.161Z,18.85
2023-04-02T01:56:48.982Z,17.10
2023-04-02T01:57:21.470Z,17.80
2023-04-02T01:57:57.811Z,19.65
2023-04-02T01:58:32.110Z,17.75
2023-04-02T01:59:11.497Z,17.35
2023-04-02T01:59:49.058Z,17.98
2023-04-02T02:00:22.707Z,16.73
2023-04-02T02:01:02.982Z,18.60
2023-04-02T02:01:45.869Z,17.15
2023-04-02T02:02:22.100Z,17.08
2023-04-02T02:02:55.024Z,18.92
2023-04-02T02:03:30.104Z,16.88
2023-04-02T02:04:02.888Z,17.67
2023-04-02T02:04:35.658Z,17.30
2023-04-02T02:05:14.164Z,16.95
2023-04-02T02:06:23.594Z,17.73
2023-04-02T02:06:58.794Z,16.98
2023-04-02T02:07:33.972Z,18.65
2023-04-02T02:08:13.021Z,17.95
2023-04-02T02:08:52.341Z,18.48
2023-04-02T02:09:28.075Z,17.73
2023-04-02T02:10:00.494Z,18.10
2023-04-02T02:10:38.149Z,16.52
2023-04-02T02:11:16.511Z,19.08
2023-04-02T02:11:49.584Z,18.48
2023-04-02T02:12:25.217Z,18.50
2023-04-02T02:13:00.478Z,17.42
2023-04-02T02:13:32.740Z,17.25
2023-04-02T02:14:16.299Z,17.08
2023-04-02T02:14:49.887Z,17.42
2023-04-02T02:15:24.087Z,17.55
2023-04-02T02:16:01.110Z,16.85
2023-04-02T02:16:41.997Z,18.35
2023-04-02T02:17:16.833Z,17.73
2023-04-02T02:17:53.173Z,19.88
2023-04-02T02:18:27.723Z,17.35
2023-04-02T02:19:03.328Z,19.33
2023-04-02T02:19:41.442Z,18.48
2023-04-02T02:20:14.827Z,19.10
2023-04-02T02:20:47.730Z,19.83
2023-04-02T02:21:29.510Z,19.67
2023-04-02T02:22:12.587Z,17.88
2023-04-02T02:22:46.881Z,18.55
2023-04-02T02:23:20.150Z,18.20
2023-04-02T02:23:55.569Z,18.25
2023-04-02T02:24:31.858Z,18.63
2023-04-02T02:25:10.952Z,16.92
2023-04-02T02:25:46.813Z,17.80
2023-04-02T02:26:19.778Z,19.00
2023-04-02T02:27:04.489Z,18.50
2023-04-02T02:27:58.778Z,16.73
2023-04-02T02:28:33.763Z,18.77
2023-04-02T02:29:11.738Z,18.20
2023-04-02T02:29:49.906Z,17.00
2023-04-02T02:30:27.326Z,17.95
2023-04-02T02:31:07.553Z,16.92
2023-04-02T02:31:42.173Z,18.60
2023-04-02T02:32:16.356Z,17.20
2023-04-02T02:32:56.090Z,19.13
2023-04-02T02:33:34.374Z,18.40
2023-04-02T02:34:50.000Z,18.30
2023-04-02T02:35:29.805Z,18.85
2023-04-02T02:36:06.550Z,18.70
2023-04-02T02:36:49.314Z,18.20
2023-04-02T02:37:27.963Z,17.55
2023-04-02T02:38:21.328Z,16.55
2023-04-02T02:39:01.152Z,18.80
2023-04-02T02:39:56.980Z,17.90
2023-04-02T02:40:36.930Z,18.85
2023-04-02T02:41:18.692Z,18.13
2023-04-02T02:41:56.085Z,18.85
2023-04-02T02:42:37.046Z,18.55
2023-04-02T02:43:13.628Z,17.98
2023-04-02T02:43:51.702Z,16.90
2023-04-02T02:44:31.756Z,18.08
2023-04-02T02:45:11.538Z,17.20
2023-04-02T02:45:47.432Z,17.27
2023-04-02T02:46:22.540Z,17.70
2023-04-02T02:47:01.777Z,16.63
2023-04-02T02:47:36.627Z,15.80
2023-04-02T02:48:15.606Z,18.55
2023-04-02T02:48:52.153Z,16.13
2023-04-02T02:49:29.596Z,17.90
2023-04-02T02:50:06.802Z,17.90
2023-04-02T02:50:42.787Z,19.42
2023-04-02T02:51:25.492Z,17.83
2023-04-02T02:52:01.858Z,16.10
2023-04-02T02:52:49.850Z,18.08
2023-04-02T02:53:23.879Z,18.02
2023-04-02T02:54:05.152Z,19.13
2023-04-02T02:54:44.503Z,17.02
2023-04-02T02:55:19.801Z,17.75
2023-04-02T02:56:03.254Z,16.65
2023-04-02T02:56:49.139Z,16.60
2023-04-02T02:57:29.022Z,17.95
2023-04-02T02:58:07.241Z,19.60
2023-04-02T02:58:47.059Z,17.30
2023-04-02T02:59:33.520Z,17.45
2023-04-02T03:00:43.815Z,15.90
2023-04-02T03:01:18.955Z,18.38
2023-04-02T03:01:52.895Z,17.00
2023-04-02T03:02:27.004Z,17.67
2023-04-02T03:03:02.698Z,16.90
2023-04-02T03:03:37.057Z,17.50
2023-04-02T03:04:11.191Z,18.55
2023-04-02T03:04:50.930Z,19.92
2023-04-02T03:05:26.665Z,19.00
2023-04-02T03:06:06.218Z,17.13
2023-04-02T03:06:42.549Z,16.08
2023-04-02T03:07:16.383Z,16.58
2023-04-02T03:07:52.384Z,16.65
2023-04-02T03:08:33.066Z,16.65
2023-04-02T03:09:15.129Z,18.63
2023-04-02T03:09:55.072Z,16.42
2023-04-02T03:10:38.029Z,16.63
2023-04-02T03:11:14.591Z,19.88
2023-04-02T03:11:52.679Z,16.45
2023-04-02T03:12:42.358Z,17.63
2023-04-02T03:13:22.480Z,16.45
2023-04-02T03:14:02.959Z,18.13
2023-04-02T03:14:45.595Z,17.80
2023-04-02T03:15:23.612Z,18.83
2023-04-02T03:16:02.921Z,19.65
2023-04-02T03:16:43.153Z,17.38
2023-04-02T03:17:57.161Z,16.60
2023-04-02T03:18:41.965Z,17.58
2023-04-02T03:19:26.328Z,19.45
2023-04-02T03:20:06.719Z,18.58
2023-04-02T03:20:45.556Z,17.92
2023-04-02T03:21:28.724Z,19.30
2023-04-02T03:22:08.871Z,18.42
2023-04-02T03:22:51.464Z,18.60
2023-04-02T03:23:32.566Z,19.55
2023-04-02T03:24:12.827Z,20.13
2023-04-02T03:25:33.055Z,19.20
2023-04-02T03:26:12.323Z,20.48
2023-04-02T03:26:52.073Z,17.70
2023-04-02T03:27:28.642Z,17.27
2023-04-02T03:28:05.069Z,19.55
2023-04-02T03:28:44.391Z,19.85
2023-04-02T03:29:19.484Z,17.83
2023-04-02T03:30:06.793Z,17.85
2023-04-02T03:30:46.517Z,17.00
2023-04-02T03:31:30.085Z,17.13
2023-04-02T03:32:07.918Z,16.95
2023-04-02T03:32:44.359Z,16.10
2023-04-02T03:33:26.622Z,18.13
2023-04-02T03:34:04.689Z,18.98
2023-04-02T03:34:43.657Z,17.77
2023-04-02T03:35:25.712Z,19.02
2023-04-02T03:36:03.372Z,18.58
2023-04-02T03:36:46.799Z,16.40
2023-04-02T03:37:24.142Z,19.15
2023-04-02T03:38:01.199Z,19.73
2023-04-02T03:38:40.212Z,18.73
2023-04-02T03:39:18.709Z,18.13
2023-04-02T03:39:59.136Z,18.55
2023-04-02T03:40:40.976Z,18.77
2023-04-02T03:41:17.482Z,19.63
2023-04-02T03:41:53.680Z,18.10
2023-04-02T03:42:33.700Z,17.15
2023-04-02T03:43:17.136Z,18.80
2023-04-02T03:43:53.953Z,17.75
2023-04-02T03:44:34.450Z,17.95
2023-04-02T03:45:15.820Z,17.60
2023-04-02T03:45:52.374Z,17.15
2023-04-02T03:46:33.843Z,18.20
2023-04-02T03:47:15.378Z,17.67
2023-04-02T03:47:54.623Z,18.48
2023-04-02T03:48:35.128Z,16.55
2023-04-02T03:49:12.146Z,18.63
2023-04-02T03:49:48.278Z,18.05
2023-04-02T03:50:29.440Z,17.98
2023-04-02T03:51:07.874Z,19.35
2023-04-02T03:51:56.344Z,18.52
2023-04-02T03:52:32.586Z,18.95
2023-04-02T03:53:06.688Z,18.60
2023-04-02T03:53:39.465Z,18.95
2023-04-02T03:54:18.684Z,19.02
2023-04-02T03:54:53.867Z,19.85
2023-04-02T03:55:29.165Z,18.83
2023-04-02T03:56:05.217Z,18.98
2023-04-02T03:56:40.158Z,18.98
2023-04-02T03:57:30.335Z,19.52
2023-04-02T03:58:09.812Z,19.27
2023-04-02T03:58:52.899Z,19.88
2023-04-02T03:59:35.056Z,20.40
2023-04-02T04:00:16.627Z,17.95
2023-04-02T04:01:02.073Z,19.58
2023-04-02T04:01:42.712Z,20.23
2023-04-02T04:02:37.787Z,21.08
2023-04-02T04:03:14.683Z,20.67
2023-04-02T04:03:52.424Z,21.08
2023-04-02T04:04:31.910Z,20.48
2023-04-02T04:05:07.100Z,22.05
2023-04-02T04:05:47.313Z,20.40
2023-04-02T04:06:27.855Z,22.55
2023-04-02T04:07:02.024Z,20.67
2023-04-02T04:07:39.128Z,20.55
2023-04-02T04:08:19.442Z,22.08
2023-04-02T04:08:55.003Z,22.33
2023-04-02T04:09:34.637Z,20.90
2023-04-02T04:10:08.916Z,21.85
2023-04-02T04:10:42.500Z,21.88
2023-04-02T04:11:21.948Z,22.33
2023-04-02T04:12:02.881Z,20.38
2023-04-02T04:12:39.790Z,19.45
2023-04-02T04:13:20.793Z,21.17
2023-04-02T04:13:57.580Z,21.35
2023-04-02T04:14:32.674Z,22.70
2023-04-02T04:15:19.822Z,21.75
2023-04-02T04:15:58.443Z,20.83
2023-04-02T04:16:34.794Z,20.80
2023-04-02T04:17:23.988Z,22.35
2023-04-02T04:18:04.551Z,21.60
2023-04-02T04:18:49.261Z,20.00
2023-04-02T04:19:30.146Z,22.25
2023-04-02T04:20:15.033Z,22.42
2023-04-02T04:20:56.955Z,21.55
2023-04-02T04:21:37.598Z,21.15
2023-04-02T04:22:30.643Z,22.05
2023-04-02T04:23:14.502Z,22.40
2023-04-02T04:23:50.812Z,20.15
2023-04-02T04:24:27.352Z,19.63
2023-04-02T04:25:09.634Z,22.10
2023-04-02T04:25:42.052Z,19.35
2023-04-02T04:26:24.881Z,21.08
2023-04-02T04:27:12.120Z,19.80
2023-04-02T04:27:56.920Z,21.77
2023-04-02T04:29:22.538Z,22.27
2023-04-02T04:30:04.151Z,19.95
2023-04-02T04:30:52.831Z,20.98
2023-04-02T04:31:34.889Z,21.67
2023-04-02T04:32:27.522Z,19.88
2023-04-02T04:33:11.118Z,23.13
2023-04-02T04:33:46.711Z,21.98
2023-04-02T04:34:30.305Z,20.48
2023-04-02T04:35:08.793Z,20.45
2023-04-02T04:35:46.782Z,20.52
2023-04-02T04:36:29.440Z,21.30
2023-04-02T04:37:21.735Z,21.30
2023-04-02T04:37:59.507Z,22.23
2023-04-02T04:38:39.625Z,21.73
2023-04-02T04:39:21.864Z,21.80
2023-04-02T04:39:59.163Z,22.75
2023-04-02T04:40:37.543Z,24.08
2023-04-02T04:41:14.560Z,23.25
2023-04-02T04:41:48.636Z,23.33
2023-04-02T04:42:27.523Z,22.25
2023-04-02T04:43:05.081Z,22.48
2023-04-02T04:43:48.338Z,22.33
2023-04-02T04:44:23.913Z,23.33
2023-04-02T04:45:04.191Z,21.75
2023-04-02T04:45:50.804Z,21.35
2023-04-02T04:46:31.208Z,21.23
2023-04-02T04:47:10.946Z,22.92
2023-04-02T04:47:50.751Z,21.65
2023-04-02T04:48:27.662Z,22.90
2023-04-02T04:49:11.355Z,23.65
2023-04-02T04:49:47.730Z,22.38
2023-04-02T04:50:29.795Z,23.40
2023-04-02T04:51:06.804Z,23.25
2023-04-02T04:51:45.428Z,24.48
2023-04-02T04:52:26.517Z,25.05
2023-04-02T04:53:06.006Z,24.13
2023-04-02T04:53:50.170Z,22.70
2023-04-02T04:54:27.590Z,25.08
2023-04-02T04:55:01.923Z,25.30
2023-04-02T04:55:42.468Z,23.30
2023-04-02T04:56:20.027Z,22.50
2023-04-02T04:57:01.371Z,23.75
2023-04-02T04:57:39.229Z,23.08
2023-04-02T04:58:23.188Z,23.15
2023-04-02T04:59:05.179Z,25.55
2023-04-02T04:59:45.095Z,23.25
2023-04-02T05:01:06.066Z,22.58
2023-04-02T05:01:46.541Z,24.00
2023-04-02T05:02:24.355Z,23.33
2023-04-02T05:03:09.373Z,24.60
2023-04-02T05:03:46.653Z,20.85
2023-04-02T05:04:26.315Z,21.98
2023-04-02T05:05:01.002Z,23.80
2023-04-02T05:05:39.686Z,22.35
2023-04-02T05:06:35.675Z,23.95
2023-04-02T05:07:14.310Z,26.20
2023-04-02T05:07:57.072Z,22.48
2023-04-02T05:08:34.860Z,24.40
2023-04-02T05:09:18.584Z,24.77
2023-04-02T05:09:56.739Z,24.73
2023-04-02T05:10:38.093Z,23.27
2023-04-02T05:11:17.734Z,22.88
2023-04-02T05:11:59.728Z,23.75
2023-04-02T05:12:35.654Z,22.98
2023-04-02T05:13:20.775Z,22.95
2023-04-02T05:13:57.997Z,23.45
2023-04-02T05:14:39.622Z,22.23
2023-04-02T05:15:17.654Z,21.95
2023-04-02T05:16:02.254Z,24.42
2023-04-02T05:16:44.160Z,21.33
2023-04-02T05:17:22.811Z,21.95
2023-04-02T05:18:12.506Z,22.70
2023-04-02T05:19:29.651Z,20.95
2023-04-02T05:20:10.280Z,21.30
2023-04-02T05:20:50.145Z,20.90
2023-04-02T05:21:26.604Z,19.70
2023-04-02T05:22:07.571Z,18.73
2023-04-02T05:22:47.659Z,20.17
2023-04-02T05:23:25.743Z,19.33
2023-04-02T05:24:10.717Z,21.30
2023-04-02T05:24:51.494Z,18.17
2023-04-02T05:25:26.105Z,18.98
2023-04-02T05:26:09.505Z,21.73
2023-04-02T05:26:46.483Z,16.65
2023-04-02T05:27:31.952Z,18.80
2023-04-02T05:28:13.958Z,17.38
2023-04-02T05:28:53.101Z,17.08
2023-04-02T05:29:32.149Z,18.30
2023-04-02T05:30:15.872Z,20.52
2023-04-02T05:30:53.041Z,17.75
2023-04-02T05:31:39.805Z,18.90
2023-04-02T05:32:19.760Z,16.30
2023-04-02T05:32:58.980Z,18.45
2023-04-02T05:33:37.997Z,19.58
2023-04-02T05:34:14.798Z,18.00
2023-04-02T05:34:53.110Z,17.55
2023-04-02T05:35:33.181Z,19.10
2023-04-02T05:36:08.312Z,15.32
2023-04-02T05:36:50.712Z,17.75
2023-04-02T05:37:26.888Z,14.90
2023-04-02T05:37:59.536Z,17.45
2023-04-02T05:38:37.256Z,14.20
2023-04-02T05:39:11.316Z,15.85
2023-04-02T05:39:56.217Z,16.90
2023-04-02T05:40:39.312Z,14.95
2023-04-02T05:41:22.660Z,14.75
2023-04-02T05:42:04.376Z,14.90
2023-04-02T05:42:50.639Z,14.75
2023-04-02T05:43:26.294Z,13.45
2023-04-02T05:44:09.010Z,16.20
2023-04-02T05:44:50.880Z,16.30
2023-04-02T05:45:32.132Z,15.52
2023-04-02T05:46:18.705Z,15.57
2023-04-02T05:46:59.097Z,15.13
2023-04-02T05:47:41.304Z,16.05
2023-04-02T05:48:21.957Z,14.88
2023-04-02T05:48:57.416Z,15.45
2023-04-02T05:49:35.733Z,14.50
2023-04-02T05:50:22.645Z,15.18
2023-04-02T05:50:59.031Z,13.30
2023-04-02T05:51:42.841Z,15.98
2023-04-02T05:52:20.589Z,14.25
2023-04-02T05:52:57.351Z,15.85
2023-04-02T05:53:38.606Z,15.73
2023-04-02T05:54:23.433Z,15.10
2023-04-02T05:55:06.540Z,16.42
2023-04-02T05:55:48.758Z,13.40
2023-04-02T05:56:23.883Z,13.77
2023-04-02T05:57:02.956Z,13.95
2023-04-02T05:57:44.834Z,14.40
2023-04-02T05:58:36.020Z,13.48
2023-04-02T05:59:24.480Z,15.70
2023-04-02T06:00:00.486Z,13.70
2023-04-02T06:00:50.614Z,13.30
2023-04-02T06:01:40.292Z,15.25
2023-04-02T06:02:23.325Z,12.85
2023-04-02T06:03:07.581Z,14.00
2023-04-02T06:03:49.748Z,14.55
2023-04-02T06:04:28.655Z,13.23
2023-04-02T06:05:08.300Z,15.90
2023-04-02T06:05:45.803Z,12.00
2023-04-02T06:06:26.101Z,13.00
2023-04-02T06:07:03.888Z,13.75
2023-04-02T06:07:45.306Z,13.43
2023-04-02T06:08:24.553Z,11.98
2023-04-02T06:09:05.783Z,11.63
2023-04-02T06:09:42.771Z,13.88
2023-04-02T06:10:24.765Z,15.57
2023-04-02T06:11:02.756Z,13.40
2023-04-02T06:11:43.388Z,13.15
2023-04-02T06:12:27.594Z,11.55
2023-04-02T06:13:06.108Z,13.38
2023-04-02T06:13:50.322Z,14.65
2023-04-02T06:14:22.705Z,12.43
2023-04-02T06:14:57.912Z,14.07
2023-04-02T06:15:35.798Z,12.95
2023-04-02T06:16:15.030Z,13.45
2023-04-02T06:16:50.191Z,13.18
2023-04-02T06:17:24.048Z,12.98
2023-04-02T06:18:08.175Z,12.48
2023-04-02T06:18:44.488Z,11.70
2023-04-02T06:19:21.535Z,12.15
2023-04-02T06:19:59.171Z,12.93
2023-04-02T06:20:31.768Z,12.32
2023-04-02T06:21:05.645Z,14.15
2023-04-02T06:21:46.903Z,12.35
2023-04-02T06:22:24.759Z,13.93
2023-04-02T06:23:09.357Z,13.80
2023-04-02T06:23:46.880Z,14.23
2023-04-02T06:24:27.261Z,12.73
2023-04-02T06:25:06.319Z,14.45
2023-04-02T06:25:47.978Z,12.57
2023-04-02T06:26:27.263Z,16.02
2023-04-02T06:27:06.623Z,12.07
2023-04-02T06:27:40.389Z,12.23
2023-04-02T06:28:19.992Z,11.88
2023-04-02T06:29:04.323Z,12.75
2023-04-02T06:29:43.522Z,11.32
2023-04-02T06:30:25.127Z,14.70
2023-04-02T06:31:03.513Z,14.55
2023-04-02T06:31:49.337Z,13.88
2023-04-02T06:32:25.787Z,12.18
2023-04-02T06:33:03.853Z,12.98
2023-04-02T06:33:37.508Z,11.10
2023-04-02T06:34:15.801Z,12.23
2023-04-02T06:34:57.140Z,11.52
2023-04-02T06:35:29.524Z,12.20
2023-04-02T06:36:09.752Z,10.38
2023-04-02T06:36:47.014Z,11.32
2023-04-02T06:37:26.157Z,12.15
2023-04-02T06:38:10.017Z,11.68
2023-04-02T06:38:44.360Z,11.45
2023-04-02T06:39:20.458Z,11.52
2023-04-02T06:39:56.186Z,9.68
2023-04-02T06:40:41.220Z,11.77
2023-04-02T06:41:28.220Z,12.38
2023-04-02T06:42:34.275Z,11.55
2023-04-02T06:43:23.599Z,11.40
2023-04-02T06:44:15.264Z,12.00
2023-04-02T06:45:02.081Z,11.65
2023-04-02T06:45:55.442Z,11.18
2023-04-02T06:46:43.077Z,11.85
2023-04-02T06:47:27.306Z,11.40
2023-04-02T06:48:04.208Z,11.57
2023-04-02T06:48:53.496Z,10.25
2023-04-02T06:49:35.601Z,13.07
2023-04-02T06:50:17.906Z,11.98
2023-04-02T06:50:55.633Z,11.05
2023-04-02T06:51:30.636Z,11.10
2023-04-02T06:52:07.984Z,12.57
2023-04-02T06:52:46.580Z,12.60
2023-04-02T06:53:26.863Z,10.85
2023-04-02T06:54:00.838Z,10.85
2023-04-02T06:54:33.092Z,11.80
2023-04-02T06:55:31.890Z,11.50
2023-04-02T06:56:07.427Z,11.15
2023-04-02T06:56:46.341Z,9.23
2023-04-02T06:57:23.081Z,12.25
2023-04-02T06:57:58.975Z,11.90
2023-04-02T06:58:32.943Z,11.63
2023-04-02T06:59:07.669Z,11.05
2023-04-02T06:59:43.276Z,11.40
2023-04-02T07:00:26.793Z,13.05
2023-04-02T07:00:59.340Z,11.57
2023-04-02T07:01:54.366Z,11.70
2023-04-02T07:03:10.597Z,10.18
2023-04-02T07:03:43.205Z,10.90
2023-04-02T07:04:27.821Z,12.38
2023-04-02T07:05:04.143Z,16.35
2023-04-02T07:05:39.852Z,14.13
2023-04-02T07:06:18.392Z,15.15
2023-04-02T07:06:52.315Z,11.98
2023-04-02T07:07:28.360Z,13.98
2023-04-02T07:08:01.618Z,14.88
2023-04-02T07:08:36.424Z,11.27
2023-04-02T07:09:10.188Z,13.02
2023-04-02T07:09:48.190Z,12.50
2023-04-02T07:10:20.608Z,13.23
2023-04-02T07:10:53.740Z,10.55
2023-04-02T07:11:28.496Z,11.40
2023-04-02T07:12:11.888Z,11.70
2023-04-02T07:12:46.902Z,12.35
2023-04-02T07:13:20.906Z,11.45
2023-04-02T07:13:53.226Z,12.15
2023-04-02T07:14:28.555Z,11.75
2023-04-02T07:15:00.815Z,11.48
2023-04-02T07:15:33.733Z,11.23
2023-04-02T07:16:14.727Z,10.88
2023-04-02T07:16:47.088Z,12.88
2023-04-02T07:17:23.254Z,12.07
2023-04-02T07:17:57.732Z,11.15
2023-04-02T07:18:37.246Z,14.18
2023-04-02T07:19:18.211Z,12.23
2023-04-02T07:19:53.494Z,11.93
2023-04-02T07:20:30.234Z,10.82
2023-04-02T07:21:05.700Z,11.48
2023-04-02T07:21:40.708Z,11.27
2023-04-02T07:22:13.040Z,12.15
2023-04-02T07:22:50.521Z,12.88
2023-04-02T07:23:22.756Z,13.27
2023-04-02T07:23:55.701Z,10.65
2023-04-02T07:24:30.580Z,11.02
2023-04-02T07:25:02.848Z,13.32
2023-04-02T07:25:37.825Z,13.15
2023-04-02T07:26:14.454Z,12.68
2023-04-02T07:26:49.711Z,11.63
2023-04-02T07:27:21.972Z,12.18
2023-04-02T07:27:57.620Z,11.15
2023-04-02T07:28:30.304Z,11.23
2023-04-02T07:29:02.480Z,10.25
2023-04-02T07:29:42.627Z,11.05
2023-04-02T07:30:15.087Z,11.45
2023-04-02T07:30:50.518Z,11.50
2023-04-02T07:31:24.908Z,12.68
2023-04-02T07:31:59.700Z,10.82
2023-04-02T07:32:31.936Z,14.13
2023-04-02T07:33:04.724Z,12.05
2023-04-02T07:33:42.225Z,15.57
2023-04-02T07:34:14.499Z,11.88
2023-04-02T07:34:47.330Z,14.95
2023-04-02T07:35:22.920Z,14.15
2023-04-02T07:35:57.555Z,14.38
2023-04-02T07:36:33.268Z,12.13
2023-04-02T07:37:06.117Z,12.23
2023-04-02T07:37:38.943Z,11.50
2023-04-02T07:38:14.363Z,13.20
2023-04-02T07:38:46.830Z,12.05
2023-04-02T07:39:21.785Z,15.00
2023-04-02T07:39:54.014Z,12.30
2023-04-02T07:40:26.260Z,12.50
2023-04-02T07:41:01.124Z,13.13
2023-04-02T07:41:33.308Z,11.00
2023-04-02T07:42:08.195Z,12.98
2023-04-02T07:42:40.535Z,11.57
2023-04-02T07:43:12.888Z,13.70
2023-04-02T07:43:48.254Z,12.32
2023-04-02T07:44:20.480Z,13.95
2023-04-02T07:44:55.289Z,16.40
2023-04-02T07:45:27.719Z,14.38
2023-04-02T07:46:00.240Z,13.50
2023-04-02T07:46:35.069Z,13.93
2023-04-02T07:47:08.742Z,15.57
2023-04-02T07:47:41.116Z,14.00
2023-04-02T07:48:16.899Z,13.73
2023-04-02T07:48:51.670Z,14.73
2023-04-02T07:49:23.962Z,14.10
2023-04-02T07:49:58.721Z,15.40
2023-04-02T07:50:30.899Z,13.90
2023-04-02T07:51:03.658Z,14.20
2023-04-02T07:51:38.414Z,13.75
2023-04-02T07:52:12.181Z,14.63
2023-04-02T07:52:47.065Z,15.88
2023-04-02T07:53:30.139Z,14.13
2023-04-02T07:54:05.159Z,13.75
2023-04-02T07:54:38.385Z,13.77
2023-04-02T07:55:12.649Z,14.38
2023-04-02T07:55:47.523Z,14.35
2023-04-02T07:56:20.445Z,14.35
2023-04-02T07:56:55.452Z,12.98
2023-04-02T07:57:27.722Z,12.85
2023-04-02T07:58:00.290Z,12.07
2023-04-02T07:58:36.692Z,14.25
2023-04-02T07:59:09.230Z,14.93
2023-04-02T07:59:44.099Z,13.45
2023-04-02T08:00:17.511Z,14.45
2023-04-02T08:00:49.863Z,15.30
2023-04-02T08:01:26.608Z,13.00
2023-04-02T08:01:58.949Z,12.88
2023-04-02T08:02:33.955Z,14.50
2023-04-02T08:03:06.353Z,13.45
2023-04-02T08:03:38.867Z,15.00
2023-04-02T08:04:21.698Z,13.57
2023-04-02T08:04:53.988Z,14.07
2023-04-02T08:05:26.621Z,13.60
2023-04-02T08:06:02.003Z,12.70
2023-04-02T08:06:34.288Z,12.50
2023-04-02T08:07:09.077Z,11.98
2023-04-02T08:07:41.790Z,12.73
2023-04-02T08:08:14.070Z,13.30
2023-04-02T08:08:49.335Z,14.15
2023-04-02T08:09:21.568Z,13.25
2023-04-02T08:09:53.789Z,13.90
2023-04-02T08:10:28.603Z,12.23
2023-04-02T08:11:01.115Z,16.48
2023-04-02T08:11:33.596Z,13.48
2023-04-02T08:12:12.676Z,14.80
2023-04-02T08:12:45.108Z,16.80
2023-04-02T08:13:18.676Z,14.48
2023-04-02T08:13:53.576Z,12.65
2023-04-02T08:14:25.774Z,15.10
2023-04-02T08:15:00.633Z,14.35
2023-04-02T08:15:33.147Z,15.55
2023-04-02T08:16:07.243Z,15.13
2023-04-02T08:16:53.837Z,14.70
2023-04-02T08:17:31.430Z,14.68
2023-04-02T08:18:03.948Z,15.07
2023-04-02T08:18:39.372Z,11.80
2023-04-02T08:19:11.812Z,14.27
2023-04-02T08:19:54.664Z,12.98
2023-04-02T08:20:30.051Z,12.70
2023-04-02T08:21:02.913Z,12.07
2023-04-02T08:21:35.100Z,11.55
2023-04-02T08:22:09.962Z,13.80
2023-04-02T08:22:42.219Z,13.07
2023-04-02T08:23:17.232Z,13.68
2023-04-02T08:23:52.010Z,13.82
2023-04-02T08:24:24.273Z,13.18
2023-04-02T08:24:56.932Z,14.43
2023-04-02T08:25:31.917Z,13.38
2023-04-02T08:26:04.891Z,13.73